Bei Facebook empfehlenBei Twitter postenGoogle plusPinterest

Das Wetter im Erzgebirge am 15.10.2016

Wetter und Klima am 15.10.2016 Holzhau im Erzgebirge (630m ü.NN)
Letzte gemessene Temperatur und Uhrzeit der Messung23:45:00 Uhr9.60 °C
Temperatur (Maximum / Höchstwert) und Uhrzeit der Messung14:00:00 Uhr15.10 °C
Temperatur (Minimum / Tiefstwert) und Uhrzeit der Messung02:45:005.90 °C
Errechneter Absolutwert der Temperaturschwankungen zwischen Tmin und Tmax des Tages9.20 K
Errechnete Tagesmitteltemperatur9.14688 °C
Gesamt - Niederschlag des Tages (in flüssiger Form)0.00 Liter / m²
Luftdruck (Maximum / Höchstwert) und Zeitpunkt der Messung23:30:00 Uhr1015.70 hPa
Luftdruck (Minimum / Tiefstwert) und Zeitpunkt der Messung03:00:00 Uhr1006.40 hPa
Errechneter Absolutwert der Luftdruckschwankungen des Tages9.30 hPa
Höchste gemessene Windgeschwindigkeit und Uhrzeit der Messung23:45:00 Uhr0.00 km/h
Errechnete Windhäufigkeit in Relation zu den Messwerten des Tages0.00000 %
Niedrigste Windkühle (Windchill) und Zeitpunkt der Messung02:45:00 Uhr5.90 °C
Taupunkt (Maximum / Höchstwert) und Uhrzeit der Messung13:45:00 Uhr13.20 °C
Taupunkt (Minimum / Tiefstwert) und Uhrzeit der Messung02:45:004.90 °C
Anzahl der automatisch eingelesenen Messwerte 96

Detaillierte Wetter- und Klima- Messwerte für den 15.10.2016 in Holzhau im Erzgebirge (630m ü.NN)
ZeitTemperaturLuftdruckRel. LuftfeuchteWindWindrichtungWindchillTaupunktNiederschlag l/m²
23:45:009.60 °C1015.50 hPa92.00 %8.40 °C 
23:30:009.60 °C1015.70 hPa92.00 %8.40 °C 
23:15:009.80 °C1015.50 hPa92.00 %8.60 °C 
23:00:009.90 °C1015.40 hPa92.00 %8.70 °C 
22:45:0010.10 °C1015.30 hPa92.00 %8.90 °C 
22:30:0010.20 °C1015.40 hPa92.00 %9.00 °C 
22:15:0010.30 °C1015.30 hPa92.00 %9.10 °C 
22:00:0010.40 °C1015.30 hPa92.00 %9.20 °C 
21:45:0010.40 °C1015.10 hPa92.00 %9.20 °C 
21:30:0010.50 °C1015.00 hPa92.00 %9.30 °C 
21:15:0010.50 °C1014.90 hPa92.00 %9.30 °C 
21:00:0010.50 °C1014.70 hPa92.00 %9.30 °C 
20:45:0010.40 °C1014.50 hPa91.00 %9.00 °C 
20:30:0010.30 °C1014.20 hPa91.00 %8.90 °C 
20:15:0010.30 °C1014.20 hPa90.00 %8.70 °C 
20:00:0010.40 °C1014.20 hPa91.00 %9.00 °C 
19:45:0010.50 °C1014.00 hPa90.00 %8.90 °C 
19:30:0010.60 °C1013.90 hPa90.00 %9.00 °C 
19:15:0010.70 °C1013.60 hPa89.00 %9.00 °C 
19:00:0010.90 °C1013.40 hPa89.00 %9.20 °C 
18:45:0011.20 °C1013.20 hPa89.00 %9.50 °C 
18:30:0011.40 °C1013.00 hPa88.00 %9.50 °C 
18:15:0011.80 °C1013.00 hPa87.00 %9.70 °C 
18:00:0012.10 °C1012.70 hPa87.00 %10.00 °C 
17:45:0012.30 °C1012.60 hPa87.00 %10.20 °C 
17:30:0012.60 °C1012.50 hPa86.00 %10.30 °C 
17:15:0012.80 °C1012.50 hPa86.00 %10.50 °C 
17:00:0012.90 °C1012.50 hPa86.00 %10.60 °C 
16:45:0013.10 °C1012.30 hPa85.00 %10.60 °C 
16:30:0013.30 °C1012.10 hPa85.00 %10.80 °C 
16:15:0013.50 °C1011.80 hPa84.00 %10.90 °C 
16:00:0013.70 °C1011.90 hPa84.00 %11.00 °C 
15:45:0013.90 °C1011.70 hPa83.00 %11.10 °C 
15:30:0014.20 °C1011.60 hPa83.00 %11.40 °C 
15:15:0014.30 °C1011.40 hPa83.00 %11.50 °C 
15:00:0014.40 °C1011.30 hPa83.00 %11.60 °C 
14:45:0014.50 °C1011.30 hPa84.00 %11.80 °C 
14:30:0014.80 °C1011.40 hPa84.00 %12.10 °C 
14:15:0014.90 °C1011.30 hPa85.00 %12.40 °C 
14:00:0015.10 °C1011.00 hPa88.00 %13.10 °C 
13:45:0014.70 °C1011.00 hPa91.00 %13.20 °C 
13:30:0013.60 °C1011.00 hPa93.00 %12.50 °C 
13:15:0013.30 °C1010.90 hPa94.00 %12.40 °C 
13:00:0012.40 °C1010.60 hPa95.00 %11.60 °C 
12:45:0011.20 °C1010.60 hPa95.00 %10.40 °C 
12:30:0010.00 °C1010.40 hPa95.00 %9.20 °C 
12:15:008.90 °C1010.40 hPa94.00 %8.00 °C 
12:00:008.50 °C1010.40 hPa94.00 %7.60 °C 
11:45:008.30 °C1009.90 hPa94.00 %7.40 °C 
11:30:008.00 °C1009.60 hPa94.00 %7.10 °C 
11:15:007.80 °C1009.30 hPa94.00 %6.90 °C 
11:00:007.60 °C1009.40 hPa94.00 %6.70 °C 
10:45:007.60 °C1009.40 hPa94.00 %6.70 °C 
10:30:007.60 °C1009.30 hPa94.00 %6.70 °C 
10:15:007.40 °C1009.20 hPa94.00 %6.50 °C 
10:00:007.20 °C1009.00 hPa94.00 %6.30 °C 
09:45:007.20 °C1009.10 hPa94.00 %6.30 °C 
09:30:007.10 °C1008.80 hPa94.00 %6.20 °C 
09:15:006.90 °C1008.50 hPa94.00 %6.00 °C 
09:00:006.70 °C1008.40 hPa94.00 %5.80 °C 
08:45:006.60 °C1008.30 hPa94.00 %5.70 °C 
08:30:006.50 °C1008.20 hPa94.00 %5.60 °C 
08:15:006.40 °C1008.30 hPa94.00 %5.50 °C 
08:00:006.30 °C1007.50 hPa94.00 %5.40 °C 
07:45:006.30 °C1006.90 hPa94.00 %5.40 °C 
07:30:006.30 °C1006.90 hPa94.00 %5.40 °C 
07:15:006.40 °C1006.70 hPa94.00 %5.50 °C 
07:00:006.30 °C1006.60 hPa94.00 %5.40 °C 
06:45:006.20 °C1006.80 hPa94.00 %5.30 °C 
06:30:006.20 °C1006.90 hPa94.00 %5.30 °C 
06:15:006.20 °C1007.30 hPa94.00 %5.30 °C 
06:00:006.20 °C1007.10 hPa94.00 %5.30 °C 
05:45:006.30 °C1006.90 hPa94.00 %5.40 °C 
05:30:006.30 °C1006.70 hPa94.00 %5.40 °C 
05:15:006.30 °C1007.10 hPa94.00 %5.40 °C 
05:00:006.20 °C1007.00 hPa94.00 %5.30 °C 
04:45:006.20 °C1006.70 hPa94.00 %5.30 °C 
04:30:006.10 °C1006.90 hPa94.00 %5.20 °C 
04:15:006.20 °C1006.80 hPa94.00 %5.30 °C 
04:00:006.10 °C1006.90 hPa94.00 %5.20 °C 
03:45:006.10 °C1006.90 hPa94.00 %5.20 °C 
03:30:006.10 °C1006.80 hPa94.00 %5.20 °C 
03:15:006.10 °C1007.00 hPa94.00 %5.20 °C 
03:00:006.10 °C1006.40 hPa94.00 %5.20 °C 
02:45:005.90 °C1006.50 hPa93.00 %4.90 °C 
02:30:005.90 °C1006.80 hPa93.00 %4.90 °C 
02:15:005.90 °C1006.90 hPa93.00 %4.90 °C 
02:00:005.90 °C1006.80 hPa93.00 %4.90 °C 
01:45:005.90 °C1006.70 hPa93.00 %4.90 °C 
01:30:006.00 °C1007.10 hPa93.00 %5.00 °C 
01:15:006.10 °C1006.90 hPa93.00 %5.10 °C 
01:00:006.20 °C1006.70 hPa93.00 %5.20 °C 
00:45:006.30 °C1006.80 hPa93.00 %5.30 °C 
00:30:006.40 °C1007.30 hPa93.00 %5.40 °C 
00:15:006.40 °C1007.50 hPa93.00 %5.40 °C 
00:00:006.50 °C1007.60 hPa93.00 %5.50 °C 

Permanenter Link zu dieser Seite: Wetter im Erzgebirge am 15.10.2016
Performance-Info: Die Erstellung der Seite / Statistik(en) / Tabelle(n) erforderte 5 Datenbankserver-Abfrage(n) und dauerte 69 Millisekunden. (Dieser Messwert ist von der Gesamt-Auslastung des Servers abhängig.)
Erzgebirge - Wetter | Erzgebirge - Wetter (Mobilgeräte) | Komplette Klimadatenbank